createdAt,value
2022-11-24T00:02:58.902Z,100412.20
2022-11-24T00:08:21.977Z,100409.50
2022-11-24T00:13:45.707Z,100408.59
2022-11-24T00:19:18.395Z,100416.44
2022-11-24T00:24:38.012Z,100422.75
2022-11-24T00:30:02.230Z,100427.16
2022-11-24T00:35:27.245Z,100430.66
2022-11-24T00:40:50.716Z,100431.52
2022-11-24T00:46:13.893Z,100435.20
2022-11-24T00:51:39.395Z,100434.41
2022-11-24T00:57:03.660Z,100425.50
2022-11-24T01:02:27.371Z,100424.89
2022-11-24T01:07:50.686Z,100426.61
2022-11-24T01:13:13.827Z,100427.60
2022-11-24T01:18:36.479Z,100428.50
2022-11-24T01:23:59.366Z,100426.72
2022-11-24T01:29:23.707Z,100430.16
2022-11-24T01:34:48.463Z,100430.23
2022-11-24T01:40:13.907Z,100431.83
2022-11-24T01:45:47.997Z,100429.19
2022-11-24T01:51:20.577Z,100427.36
2022-11-24T01:56:44.638Z,100426.61
2022-11-24T02:02:09.770Z,100433.66
2022-11-24T02:07:34.632Z,100429.38
2022-11-24T02:13:01.277Z,100422.30
2022-11-24T02:18:24.010Z,100430.16
2022-11-24T02:24:03.087Z,100436.34
2022-11-24T02:29:27.354Z,100441.63
2022-11-24T02:34:50.125Z,100443.42
2022-11-24T02:40:13.410Z,100438.15
2022-11-24T02:45:38.011Z,100438.13
2022-11-24T02:51:00.823Z,100437.34
2022-11-24T02:56:23.613Z,100433.84
2022-11-24T03:01:46.420Z,100432.98
2022-11-24T03:07:10.971Z,100435.56
2022-11-24T03:12:33.863Z,100430.23
2022-11-24T03:18:00.106Z,100427.66
2022-11-24T03:23:23.476Z,100437.34
2022-11-24T03:28:46.339Z,100434.66
2022-11-24T03:34:10.922Z,100432.02
2022-11-24T03:39:35.057Z,100432.93
2022-11-24T03:45:04.210Z,100438.15
2022-11-24T03:50:25.089Z,100446.95
2022-11-24T03:55:50.919Z,100446.06
2022-11-24T04:01:14.227Z,100453.95
2022-11-24T04:06:38.303Z,100440.78
2022-11-24T04:12:21.263Z,100448.67
2022-11-24T04:17:45.851Z,100454.03
2022-11-24T04:23:09.323Z,100461.08
2022-11-24T04:28:32.055Z,100456.66
2022-11-24T04:33:54.728Z,100459.25
2022-11-24T04:39:20.140Z,100465.36
2022-11-24T04:44:43.919Z,100469.80
2022-11-24T04:50:08.433Z,100476.66
2022-11-24T04:55:32.099Z,100472.99
2022-11-24T05:00:54.842Z,100468.74
2022-11-24T05:06:18.966Z,100492.42
2022-11-24T05:11:43.123Z,100482.73
2022-11-24T05:17:05.948Z,100501.06
2022-11-24T05:22:29.281Z,100499.23
2022-11-24T05:27:51.943Z,100511.61
2022-11-24T05:33:19.604Z,100524.75
2022-11-24T05:38:53.977Z,100523.66
2022-11-24T05:44:16.822Z,100516.97
2022-11-24T05:49:39.937Z,100529.45
2022-11-24T05:55:02.312Z,100535.64
2022-11-24T06:00:25.365Z,100540.05
2022-11-24T06:05:49.770Z,100543.62
2022-11-24T06:11:18.637Z,100548.09
2022-11-24T06:16:41.242Z,100559.50
2022-11-24T06:22:03.626Z,100557.77
2022-11-24T06:27:26.308Z,100559.45
2022-11-24T06:32:49.883Z,100572.73
2022-11-24T06:38:13.283Z,100571.92
2022-11-24T06:43:36.133Z,100576.39
2022-11-24T06:49:00.226Z,100580.92
2022-11-24T06:54:25.595Z,100583.51
2022-11-24T06:59:47.879Z,100577.32
2022-11-24T07:05:10.227Z,100585.11
2022-11-24T07:10:32.551Z,100599.10
2022-11-24T07:15:56.779Z,100589.19
2022-11-24T07:21:20.783Z,100596.82
2022-11-24T07:26:43.747Z,100596.06
2022-11-24T07:32:06.107Z,100599.45
2022-11-24T07:37:31.503Z,100595.95
2022-11-24T07:42:53.436Z,100594.76
2022-11-24T07:48:15.780Z,100588.46
2022-11-24T07:53:38.338Z,100588.63
2022-11-24T07:59:01.195Z,100595.44
2022-11-24T08:04:23.891Z,100592.64
2022-11-24T08:09:46.109Z,100592.58
2022-11-24T08:15:11.118Z,100590.05
2022-11-24T08:20:33.127Z,100593.39
2022-11-24T08:25:57.264Z,100597.86
2022-11-24T08:31:30.805Z,100606.69
2022-11-24T08:36:53.109Z,100612.26
2022-11-24T08:42:15.571Z,100603.43
2022-11-24T08:47:38.261Z,100617.53
2022-11-24T08:53:00.534Z,100615.81
2022-11-24T08:58:24.958Z,100630.77
2022-11-24T09:03:50.718Z,100628.19
2022-11-24T09:09:16.267Z,100629.33
2022-11-24T09:14:38.581Z,100629.38
2022-11-24T09:25:40.332Z,100643.84
2022-11-24T09:31:02.588Z,100646.04
2022-11-24T09:36:27.179Z,100649.38
2022-11-24T09:42:00.288Z,100642.19
2022-11-24T09:47:44.374Z,100649.88
2022-11-24T09:53:37.018Z,100652.46
2022-11-24T09:59:07.588Z,100664.06
2022-11-24T10:04:46.512Z,100646.38
2022-11-24T10:10:13.990Z,100657.00
2022-11-24T10:16:11.777Z,100652.57
2022-11-24T10:21:48.117Z,100647.66
2022-11-24T10:27:18.909Z,100656.48
2022-11-24T10:32:45.439Z,100650.73
2022-11-24T10:38:32.441Z,100647.02
2022-11-24T10:43:55.954Z,100652.57
2022-11-24T10:49:26.589Z,100655.23
2022-11-24T10:55:05.290Z,100658.36
2022-11-24T11:00:37.390Z,100649.77
2022-11-24T11:06:19.270Z,100657.39
2022-11-24T11:11:44.960Z,100656.28
2022-11-24T11:17:10.904Z,100652.48
2022-11-24T11:22:38.002Z,100647.84
2022-11-24T11:28:08.638Z,100644.25
2022-11-24T11:39:06.867Z,100645.86
2022-11-24T11:44:49.050Z,100648.20
2022-11-24T11:50:13.148Z,100655.18
2022-11-24T11:55:52.385Z,100659.24
2022-11-24T12:01:26.434Z,100651.08
2022-11-24T12:07:15.829Z,100657.15
2022-11-24T12:13:11.118Z,100657.82
2022-11-24T12:19:02.831Z,100663.49
2022-11-24T12:24:31.318Z,100670.11
2022-11-24T12:30:01.543Z,100680.61
2022-11-24T12:35:44.067Z,100678.11
2022-11-24T12:41:43.138Z,100667.05
2022-11-24T12:47:19.574Z,100673.74
2022-11-24T12:52:59.303Z,100672.69
2022-11-24T12:58:51.444Z,100669.88
2022-11-24T13:04:54.772Z,100673.55
2022-11-24T13:10:57.873Z,100683.39
2022-11-24T13:16:59.578Z,100683.02
2022-11-24T13:22:05.314Z,100693.95
2022-11-24T13:27:48.983Z,100705.59
2022-11-24T13:33:37.136Z,100704.86
2022-11-24T13:39:02.143Z,100700.39
2022-11-24T13:44:39.797Z,100703.58
2022-11-24T13:50:03.182Z,100685.11
2022-11-24T13:55:39.439Z,100678.38
2022-11-24T14:01:41.356Z,100686.59
2022-11-24T14:07:11.356Z,100695.27
2022-11-24T14:12:39.105Z,100701.52
2022-11-24T14:18:01.682Z,100713.64
2022-11-24T14:23:25.863Z,100724.94
2022-11-24T14:28:48.306Z,100729.25
2022-11-24T14:34:26.642Z,100737.35
2022-11-24T14:39:50.647Z,100743.49
2022-11-24T14:45:17.115Z,100746.52
2022-11-24T14:50:41.226Z,100750.25
2022-11-24T14:56:14.960Z,100754.92
2022-11-24T15:01:47.833Z,100745.66
2022-11-24T15:07:32.080Z,100750.41
2022-11-24T15:13:03.837Z,100766.34
2022-11-24T15:18:40.451Z,100767.20
2022-11-24T15:24:24.898Z,100759.29
2022-11-24T15:29:47.415Z,100761.02
2022-11-24T15:35:14.807Z,100762.86
2022-11-24T15:40:37.901Z,100758.47
2022-11-24T15:46:00.591Z,100762.14
2022-11-24T15:51:27.021Z,100772.75
2022-11-24T15:56:53.292Z,100774.01
2022-11-24T16:02:16.139Z,100776.10
2022-11-24T16:07:38.490Z,100772.75
2022-11-24T16:13:00.739Z,100778.15
2022-11-24T16:18:24.178Z,100775.34
2022-11-24T16:23:48.353Z,100791.88
2022-11-24T16:29:10.968Z,100792.69
2022-11-24T16:34:34.875Z,100798.66
2022-11-24T16:39:58.782Z,100791.94
2022-11-24T16:45:23.490Z,100802.97
2022-11-24T16:50:48.328Z,100805.66
2022-11-24T16:56:12.651Z,100807.28
2022-11-24T17:01:36.666Z,100796.90
2022-11-24T17:06:59.502Z,100794.52
2022-11-24T17:12:21.833Z,100806.00
2022-11-24T17:18:08.360Z,100808.52
2022-11-24T17:23:09.217Z,100823.34
2022-11-24T17:28:32.269Z,100829.37
2022-11-24T17:33:58.931Z,100833.78
2022-11-24T17:39:25.181Z,100832.92
2022-11-24T17:44:47.667Z,100842.52
2022-11-24T17:50:10.391Z,100853.94
2022-11-24T17:55:32.876Z,100854.25
2022-11-24T18:00:56.079Z,100863.84
2022-11-24T18:06:29.142Z,100870.80
2022-11-24T18:11:52.924Z,100872.83
2022-11-24T18:17:15.219Z,100875.32
2022-11-24T18:23:04.193Z,100872.77
2022-11-24T18:28:01.514Z,100862.33
2022-11-24T18:33:24.958Z,100870.25
2022-11-24T18:38:49.146Z,100881.86
2022-11-24T18:44:13.755Z,100877.45
2022-11-24T18:49:36.177Z,100886.95
2022-11-24T18:55:00.806Z,100884.45
2022-11-24T19:00:25.972Z,100884.15
2022-11-24T19:05:48.779Z,100883.28
2022-11-24T19:11:12.333Z,100890.38
2022-11-24T19:16:37.109Z,100887.70
2022-11-24T19:21:59.909Z,100891.16
2022-11-24T19:27:23.505Z,100888.47
2022-11-24T19:32:45.985Z,100891.92
2022-11-24T19:38:12.331Z,100899.63
2022-11-24T19:43:33.654Z,100903.94
2022-11-24T19:48:59.615Z,100911.87
2022-11-24T19:54:23.680Z,100910.12
2022-11-24T19:59:46.153Z,100914.52
2022-11-24T20:05:08.438Z,100914.66
2022-11-24T20:10:31.163Z,100921.14
2022-11-24T20:15:53.408Z,100930.66
2022-11-24T20:21:22.988Z,100933.23
2022-11-24T20:26:49.343Z,100924.46
2022-11-24T20:32:15.407Z,100936.69
2022-11-24T20:37:38.159Z,100936.64
2022-11-24T20:43:00.944Z,100943.70
2022-11-24T20:48:23.265Z,100949.02
2022-11-24T20:53:45.908Z,100959.44
2022-11-24T20:59:09.349Z,100961.11
2022-11-24T21:04:37.185Z,100966.44
2022-11-24T21:09:59.692Z,100956.75
2022-11-24T21:15:24.003Z,100950.75
2022-11-24T21:20:46.933Z,100955.27
2022-11-24T21:26:16.840Z,100945.52
2022-11-24T21:31:40.809Z,100947.00
2022-11-24T21:37:03.236Z,100940.19
2022-11-24T21:42:25.444Z,100927.95
2022-11-24T21:47:47.786Z,100928.81
2022-11-24T21:53:11.956Z,100931.50
2022-11-24T21:58:34.798Z,100935.11
2022-11-24T22:03:59.258Z,100940.34
2022-11-24T22:09:22.865Z,100948.27
2022-11-24T22:14:45.781Z,100954.20
2022-11-24T22:20:09.080Z,100957.60
2022-11-24T22:25:31.259Z,100964.56
2022-11-24T22:30:54.204Z,100978.54
2022-11-24T22:36:18.867Z,100982.95
2022-11-24T22:41:41.967Z,100982.91
2022-11-24T22:47:04.164Z,100986.41
2022-11-24T22:52:27.333Z,100992.61
2022-11-24T22:57:52.221Z,100997.93
2022-11-24T23:03:13.638Z,100995.34
2022-11-24T23:08:36.532Z,100991.97
2022-11-24T23:14:02.446Z,100993.77
2022-11-24T23:19:25.623Z,100998.13
2022-11-24T23:24:48.453Z,100991.98
2022-11-24T23:30:10.981Z,100992.03
2022-11-24T23:35:33.204Z,101005.19
2022-11-24T23:40:55.417Z,101005.19
2022-11-24T23:46:24.371Z,100999.95
2022-11-24T23:51:47.734Z,100990.30
2022-11-24T23:57:10.035Z,100991.22
